createdAt,value
2023-04-11T00:00:16.912Z,95041.53
2023-04-11T00:02:45.476Z,95049.06
2023-04-11T00:05:14.275Z,95062.56
2023-04-11T00:07:42.685Z,95062.28
2023-04-11T00:10:11.840Z,95066.56
2023-04-11T00:12:40.109Z,95060.44
2023-04-11T00:15:09.694Z,95077.66
2023-04-11T00:17:41.694Z,95061.19
2023-04-11T00:20:11.677Z,95077.34
2023-04-11T00:22:40.345Z,95057.56
2023-04-11T00:25:09.295Z,95086.72
2023-04-11T00:27:37.606Z,95102.88
2023-04-11T00:30:07.122Z,95083.81
2023-04-11T00:32:35.620Z,95102.09
2023-04-11T00:35:05.877Z,95095.44
2023-04-11T00:37:36.426Z,95065.88
2023-04-11T00:40:07.821Z,95070.00
2023-04-11T00:42:36.215Z,95057.41
2023-04-11T00:45:04.973Z,95057.72
2023-04-11T00:47:34.250Z,95050.25
2023-04-11T00:50:03.118Z,95038.78
2023-04-11T00:52:32.975Z,95034.28
2023-04-11T00:55:03.624Z,95034.31
2023-04-11T00:57:32.398Z,95030.88
2023-04-11T01:00:02.120Z,95023.91
2023-04-11T01:02:30.754Z,95020.50
2023-04-11T01:05:00.941Z,95023.47
2023-04-11T01:07:31.485Z,95017.03
2023-04-11T01:10:02.721Z,95013.38
2023-04-11T01:12:32.018Z,94995.41
2023-04-11T01:15:00.730Z,94980.69
2023-04-11T01:17:29.179Z,94984.38
2023-04-11T01:19:57.950Z,94987.63
2023-04-11T01:22:27.342Z,94979.03
2023-04-11T01:24:57.544Z,94970.19
2023-04-11T01:27:26.179Z,94966.72
2023-04-11T01:29:54.872Z,94890.19
2023-04-11T01:32:23.179Z,94921.72
2023-04-11T01:34:55.024Z,94944.22
2023-04-11T01:37:23.761Z,94942.63
2023-04-11T01:39:52.241Z,94945.06
2023-04-11T01:42:22.564Z,94905.44
2023-04-11T01:44:52.282Z,94936.72
2023-04-11T01:47:20.736Z,94936.72
2023-04-11T01:49:49.057Z,94960.34
2023-04-11T01:52:17.564Z,94958.75
2023-04-11T01:54:45.855Z,94959.81
2023-04-11T01:57:14.157Z,94954.97
2023-04-11T01:59:43.905Z,94947.75
2023-04-11T02:02:12.399Z,94949.63
2023-04-11T02:04:40.931Z,94949.91
2023-04-11T02:07:09.305Z,94971.63
2023-04-11T02:09:38.391Z,94943.72
2023-04-11T02:12:07.196Z,94950.41
2023-04-11T02:14:44.648Z,94956.53
2023-04-11T02:17:14.331Z,94956.53
2023-04-11T02:19:45.633Z,94973.69
2023-04-11T02:22:14.935Z,94939.41
2023-04-11T02:24:43.448Z,94983.94
2023-04-11T02:27:12.763Z,94874.78
2023-04-11T02:29:41.254Z,94979.16
2023-04-11T02:32:11.356Z,94978.09
2023-04-11T02:34:39.750Z,94980.75
2023-04-11T02:37:08.083Z,94982.91
2023-04-11T02:39:36.674Z,94989.84
2023-04-11T02:42:05.197Z,94989.63
2023-04-11T02:44:33.489Z,94989.34
2023-04-11T02:47:01.989Z,95002.22
2023-04-11T02:49:32.423Z,95010.81
2023-04-11T02:52:00.744Z,95000.63
2023-04-11T02:54:29.088Z,94985.34
2023-04-11T02:56:57.985Z,94982.88
2023-04-11T02:59:26.725Z,94970.03
2023-04-11T03:01:59.582Z,94935.19
2023-04-11T03:04:28.341Z,94964.63
2023-04-11T03:06:58.777Z,94949.09
2023-04-11T03:09:27.563Z,94966.47
2023-04-11T03:11:56.205Z,94908.97
2023-04-11T03:14:24.480Z,94954.97
2023-04-11T03:16:52.735Z,94947.94
2023-04-11T03:19:21.247Z,94947.94
2023-04-11T03:21:49.623Z,94957.59
2023-04-11T03:24:19.611Z,94961.38
2023-04-11T03:26:48.064Z,94961.38
2023-04-11T03:29:16.731Z,94961.38
2023-04-11T03:31:45.539Z,94968.34
2023-04-11T03:34:13.842Z,94958.69
2023-04-11T03:36:42.165Z,94956.50
2023-04-11T03:39:10.727Z,94963.47
2023-04-11T03:41:40.464Z,94975.81
2023-04-11T03:44:08.750Z,94979.75
2023-04-11T03:46:37.183Z,94979.06
2023-04-11T03:49:05.545Z,94990.03
2023-04-11T03:51:34.033Z,94899.94
2023-04-11T03:54:02.452Z,94989.09
2023-04-11T03:56:30.793Z,94987.81
2023-04-11T03:59:00.552Z,94975.78
2023-04-11T04:01:29.225Z,94965.34
2023-04-11T04:03:57.781Z,94971.28
2023-04-11T04:06:26.885Z,94964.03
2023-04-11T04:08:55.529Z,94964.84
2023-04-11T04:11:23.784Z,94970.50
2023-04-11T04:13:52.110Z,94975.06
2023-04-11T04:16:22.714Z,94942.13
2023-04-11T04:18:51.257Z,94965.94
2023-04-11T04:21:19.521Z,94952.28
2023-04-11T04:23:50.235Z,94928.44
2023-04-11T04:26:25.369Z,94987.91
2023-04-11T04:28:54.183Z,94986.31
2023-04-11T04:31:25.911Z,94979.91
2023-04-11T04:33:54.498Z,94977.22
2023-04-11T04:36:25.139Z,94960.59
2023-04-11T04:38:53.574Z,94941.84
2023-04-11T04:41:22.993Z,94965.94
2023-04-11T04:43:54.878Z,94965.41
2023-04-11T04:46:24.957Z,94963.53
2023-04-11T04:48:53.347Z,94954.69
2023-04-11T04:51:21.746Z,94948.25
2023-04-11T04:53:50.023Z,94954.16
2023-04-11T04:56:18.495Z,94952.28
2023-04-11T04:58:48.060Z,94956.84
2023-04-11T05:01:17.143Z,94958.97
2023-04-11T05:03:50.970Z,94950.69
2023-04-11T05:06:19.949Z,94949.84
2023-04-11T05:08:48.768Z,94952.81
2023-04-11T05:11:17.433Z,94878.63
2023-04-11T05:13:45.794Z,94948.78
2023-04-11T05:16:14.197Z,94949.84
2023-04-11T05:18:42.541Z,94921.50
2023-04-11T05:21:12.542Z,94964.88
2023-04-11T05:23:41.509Z,94973.72
2023-04-11T05:26:10.634Z,94971.31
2023-04-11T05:28:39.087Z,94959.25
2023-04-11T05:31:08.938Z,94966.47
2023-04-11T05:33:38.754Z,94988.72
2023-04-11T05:36:07.983Z,94887.75
2023-04-11T05:38:37.763Z,95004.78
2023-04-11T05:41:06.541Z,95002.38
2023-04-11T05:43:34.885Z,95000.25
2023-04-11T05:46:03.487Z,94982.00
2023-04-11T05:48:32.259Z,94960.34
2023-04-11T05:51:01.320Z,94971.84
2023-04-11T05:53:29.742Z,94972.66
2023-04-11T05:55:59.608Z,94975.59
2023-04-11T05:58:29.879Z,94986.84
2023-04-11T06:00:59.551Z,94964.06
2023-04-11T06:03:28.138Z,94933.78
2023-04-11T06:05:56.731Z,94968.09
2023-04-11T06:08:25.371Z,94969.97
2023-04-11T06:10:53.655Z,94984.19
2023-04-11T06:13:23.391Z,94964.06
2023-04-11T06:15:51.775Z,94952.56
2023-04-11T06:18:20.154Z,94921.50
2023-04-11T06:20:49.677Z,94950.41
2023-04-11T06:23:18.140Z,94966.50
2023-04-11T06:25:46.517Z,94960.31
2023-04-11T06:28:15.348Z,94965.94
2023-04-11T06:30:45.113Z,94983.66
2023-04-11T06:33:13.448Z,94982.03
2023-04-11T06:35:41.729Z,94987.66
2023-04-11T06:38:10.427Z,94980.94
2023-04-11T06:40:38.800Z,94989.53
2023-04-11T06:43:07.210Z,94970.50
2023-04-11T06:45:35.521Z,94983.88
2023-04-11T06:48:05.548Z,94992.72
2023-04-11T06:50:33.904Z,94986.59
2023-04-11T06:53:02.220Z,94971.84
2023-04-11T06:55:31.103Z,95007.75
2023-04-11T06:57:59.858Z,94998.09
2023-04-11T07:00:28.666Z,94992.72
2023-04-11T07:02:57.220Z,94957.59
2023-04-11T07:05:27.660Z,94897.38
2023-04-11T07:07:55.989Z,95004.53
2023-04-11T07:10:25.104Z,94949.88
2023-04-11T07:12:53.355Z,95009.59
2023-04-11T07:15:21.824Z,95010.41
2023-04-11T07:17:52.600Z,95016.59
2023-04-11T07:20:21.603Z,95028.66
2023-04-11T07:22:51.424Z,94978.25
2023-04-11T07:25:22.646Z,95021.38
2023-04-11T07:27:51.851Z,95017.91
2023-04-11T07:30:21.367Z,95026.72
2023-04-11T07:32:49.771Z,95038.53
2023-04-11T07:35:18.280Z,95046.88
2023-04-11T07:37:47.584Z,95036.94
2023-04-11T07:40:17.915Z,95052.75
2023-04-11T07:42:47.569Z,95021.31
2023-04-11T07:45:16.072Z,95026.47
2023-04-11T07:47:44.439Z,95045.69
2023-04-11T07:50:13.693Z,95013.31
2023-04-11T07:52:41.972Z,95046.41
2023-04-11T07:55:11.107Z,95054.81
2023-04-11T07:57:40.909Z,95054.84
2023-04-11T08:00:11.806Z,95052.66
2023-04-11T08:02:40.407Z,95063.16
2023-04-11T08:05:10.216Z,95069.31
2023-04-11T08:07:38.648Z,95055.84
2023-04-11T08:10:08.382Z,95054.72
2023-04-11T08:12:36.844Z,95063.63
2023-04-11T08:15:07.824Z,95062.28
2023-04-11T08:17:38.797Z,95053.66
2023-04-11T08:20:09.730Z,95056.59
2023-04-11T08:22:39.489Z,94988.34
2023-04-11T08:25:10.305Z,95042.41
2023-04-11T08:27:39.255Z,95052.56
2023-04-11T08:30:10.618Z,95049.91
2023-04-11T08:32:39.127Z,95051.50
2023-04-11T08:35:08.090Z,95027.81
2023-04-11T08:37:36.442Z,95054.19
2023-04-11T08:40:07.057Z,95063.31
2023-04-11T08:42:36.154Z,95057.13
2023-04-11T08:45:08.801Z,95043.13
2023-04-11T08:47:38.942Z,95052.47
2023-04-11T08:50:08.351Z,95050.28
2023-04-11T08:52:39.542Z,95056.63
2023-04-11T08:55:08.621Z,95044.78
2023-04-11T08:57:38.261Z,95066.78
2023-04-11T09:00:15.013Z,95072.66
2023-04-11T09:02:59.244Z,95017.47
2023-04-11T09:05:31.335Z,95066.38
2023-04-11T09:08:00.943Z,95066.34
2023-04-11T09:10:29.696Z,95053.38
2023-04-11T09:12:58.512Z,95055.09
2023-04-11T09:15:29.057Z,95062.00
2023-04-11T09:18:01.085Z,95066.47
2023-04-11T09:20:31.330Z,95064.72
2023-04-11T09:23:00.286Z,95070.78
2023-04-11T09:25:29.404Z,95069.00
2023-04-11T09:28:11.894Z,95078.41
2023-04-11T09:30:40.286Z,95074.72
2023-04-11T09:33:24.708Z,95073.72
2023-04-11T09:35:56.411Z,95078.69
2023-04-11T09:38:32.798Z,95097.09
2023-04-11T09:41:01.774Z,95097.63
2023-04-11T09:43:49.617Z,95100.53
2023-04-11T09:46:20.884Z,95121.88
2023-04-11T09:48:51.853Z,95122.41
2023-04-11T09:51:35.070Z,95117.91
2023-04-11T09:54:06.040Z,95065.91
2023-04-11T09:56:35.640Z,95127.78
2023-04-11T09:59:05.682Z,95110.59
2023-04-11T10:01:34.543Z,95091.81
2023-04-11T10:04:05.083Z,95108.19
2023-04-11T10:06:38.949Z,95113.59
2023-04-11T10:09:09.884Z,95101.50
2023-04-11T10:11:38.412Z,95101.47
2023-04-11T10:14:06.736Z,95113.34
2023-04-11T10:16:35.267Z,95089.47
2023-04-11T10:19:27.385Z,95114.97
2023-04-11T10:21:56.146Z,95106.38
2023-04-11T10:24:26.845Z,95086.53
2023-04-11T10:26:57.662Z,95077.91
2023-04-11T10:29:48.426Z,95091.25
2023-04-11T10:32:23.283Z,95096.63
2023-04-11T10:35:31.298Z,95086.81
2023-04-11T10:38:01.043Z,95083.59
2023-04-11T10:40:29.403Z,95104.19
2023-04-11T10:42:57.917Z,95087.47
2023-04-11T10:45:28.505Z,95101.00
2023-04-11T10:48:10.683Z,95112.19
2023-04-11T10:50:46.371Z,95117.69
2023-04-11T10:53:37.808Z,95114.22
2023-04-11T10:56:07.055Z,95129.19
2023-04-11T10:58:40.617Z,95134.84
2023-04-11T11:01:31.327Z,95131.41
2023-04-11T11:04:06.430Z,95099.16
2023-04-11T11:06:46.102Z,95136.75
2023-04-11T11:09:26.735Z,95133.00
2023-04-11T11:12:08.097Z,95124.44
2023-04-11T11:14:36.680Z,95132.38
2023-04-11T11:17:05.949Z,95149.44
2023-04-11T11:19:35.684Z,94862.31
2023-04-11T11:22:05.072Z,95168.22
2023-04-11T11:24:34.910Z,95172.28
2023-04-11T11:27:03.443Z,95172.34
2023-04-11T11:29:33.996Z,95169.13
2023-04-11T11:32:04.276Z,95177.72
2023-04-11T11:34:34.126Z,95174.47
2023-04-11T11:37:05.609Z,95155.41
2023-04-11T11:39:36.360Z,95161.50
2023-04-11T11:42:04.973Z,95166.34
2023-04-11T11:44:33.803Z,95182.38
2023-04-11T11:47:03.131Z,95158.91
2023-04-11T11:49:45.806Z,95147.03
2023-04-11T11:52:14.674Z,95114.84
2023-04-11T11:54:48.391Z,95134.13
2023-04-11T11:57:22.959Z,95157.88
2023-04-11T11:59:55.260Z,95155.22
2023-04-11T12:02:26.308Z,95161.63
2023-04-11T12:05:00.383Z,95162.53
2023-04-11T12:07:32.723Z,95149.84
2023-04-11T12:10:03.463Z,95187.38
2023-04-11T12:12:37.074Z,95183.50
2023-04-11T12:15:05.230Z,95176.50
2023-04-11T12:17:37.025Z,95165.88
2023-04-11T12:20:08.084Z,95171.88
2023-04-11T12:22:36.958Z,95181.47
2023-04-11T12:25:08.189Z,95179.31
2023-04-11T12:27:37.421Z,95182.38
2023-04-11T12:30:06.888Z,95172.53
2023-04-11T12:32:35.376Z,95169.75
2023-04-11T12:35:04.597Z,95176.13
2023-04-11T12:37:33.412Z,95175.03
2023-04-11T12:40:02.121Z,95143.94
2023-04-11T12:45:00.505Z,95181.22
2023-04-11T12:47:28.938Z,95152.91
2023-04-11T12:49:57.218Z,95188.06
2023-04-11T12:52:26.177Z,95190.78
2023-04-11T12:54:54.761Z,95201.34
2023-04-11T12:57:24.090Z,95205.53
2023-04-11T12:59:54.157Z,95194.84
2023-04-11T13:02:22.758Z,95192.09
2023-04-11T13:04:53.496Z,95189.47
2023-04-11T13:07:22.392Z,95179.22
2023-04-11T13:09:51.065Z,95192.41
2023-04-11T13:12:19.432Z,95187.25
2023-04-11T13:14:47.742Z,95174.25
2023-04-11T13:17:17.755Z,95181.25
2023-04-11T13:19:46.277Z,95189.84
2023-04-11T13:22:14.566Z,95187.31
2023-04-11T13:24:43.027Z,95192.59
2023-04-11T13:27:11.300Z,95183.88
2023-04-11T13:29:40.421Z,95177.44
2023-04-11T13:32:08.832Z,95176.69
2023-04-11T13:34:38.639Z,95173.50
2023-04-11T13:37:06.980Z,95184.69
2023-04-11T13:39:35.326Z,95188.09
2023-04-11T13:42:03.737Z,95171.66
2023-04-11T13:44:32.195Z,95186.13
2023-04-11T13:47:01.494Z,95180.44
2023-04-11T13:49:29.925Z,95181.13
2023-04-11T13:51:59.672Z,95180.31
2023-04-11T13:54:27.970Z,95177.09
2023-04-11T13:56:56.584Z,95171.13
2023-04-11T13:59:24.964Z,95161.75
2023-04-11T14:01:53.341Z,95181.16
2023-04-11T14:04:21.914Z,95178.25
2023-04-11T14:06:54.000Z,95181.56
2023-04-11T14:09:23.684Z,95082.38
2023-04-11T14:11:52.321Z,95177.78
2023-04-11T14:14:20.869Z,95167.69
2023-04-11T14:16:50.427Z,95185.72
2023-04-11T14:19:18.930Z,95172.78
2023-04-11T14:21:47.251Z,95175.97
2023-04-11T14:24:15.615Z,95185.47
2023-04-11T14:26:45.328Z,95187.31
2023-04-11T14:29:14.269Z,95182.75
2023-04-11T14:31:42.713Z,95179.38
2023-04-11T14:34:11.204Z,95199.72
2023-04-11T14:36:39.618Z,95200.41
2023-04-11T14:39:08.375Z,95162.25
2023-04-11T14:41:36.867Z,95192.84
2023-04-11T14:44:07.006Z,95151.78
2023-04-11T14:46:35.761Z,95167.13
2023-04-11T14:49:04.224Z,95207.34
2023-04-11T14:51:35.151Z,95190.97
2023-04-11T14:54:03.647Z,95046.09
2023-04-11T14:56:32.013Z,95191.97
2023-04-11T14:59:00.479Z,95198.50
2023-04-11T15:01:30.890Z,95148.56
2023-04-11T15:03:59.641Z,95188.97
2023-04-11T15:06:28.326Z,95195.81
2023-04-11T15:08:56.818Z,95203.72
2023-04-11T15:11:27.035Z,95205.63
2023-04-11T15:13:55.861Z,95199.84
2023-04-11T15:16:24.658Z,95149.25
2023-04-11T15:18:55.121Z,95196.88
2023-04-11T15:21:24.103Z,95208.13
2023-04-11T15:23:52.978Z,95210.66
2023-04-11T15:26:21.704Z,95203.50
2023-04-11T15:28:51.325Z,95160.09
2023-04-11T15:31:26.884Z,95217.66
2023-04-11T15:34:00.290Z,95229.56
2023-04-11T15:36:33.344Z,95182.06
2023-04-11T15:39:01.921Z,95269.53
2023-04-11T15:41:32.218Z,95271.00
2023-04-11T15:44:01.680Z,95273.50
2023-04-11T15:46:30.340Z,95266.22
2023-04-11T15:49:00.520Z,95271.84
2023-04-11T15:51:29.270Z,95278.88
2023-04-11T15:53:57.984Z,95298.63
2023-04-11T15:56:28.418Z,95236.91
2023-04-11T15:58:57.727Z,95283.84
2023-04-11T16:01:29.386Z,95183.28
2023-04-11T16:04:00.919Z,94892.00
2023-04-11T16:06:48.144Z,95163.22
2023-04-11T16:09:16.521Z,95269.41
2023-04-11T16:11:44.882Z,95265.13
2023-04-11T16:14:13.507Z,95266.47
2023-04-11T16:16:42.579Z,95263.00
2023-04-11T16:19:10.984Z,95261.38
2023-04-11T16:21:41.029Z,95260.28
2023-04-11T16:24:09.322Z,95257.56
2023-04-11T16:26:37.815Z,95245.22
2023-04-11T16:29:06.461Z,95237.44
2023-04-11T16:31:35.744Z,95209.28
2023-04-11T16:34:04.170Z,95228.09
2023-04-11T16:36:32.767Z,95243.63
2023-04-11T16:39:04.336Z,95039.59
2023-04-11T16:41:36.492Z,95247.13
2023-04-11T16:44:05.901Z,95235.59
2023-04-11T16:46:34.466Z,95235.59
2023-04-11T16:49:02.818Z,95239.38
2023-04-11T16:51:31.480Z,95246.41
2023-04-11T16:53:59.864Z,95245.34
2023-04-11T16:56:31.249Z,95175.84
2023-04-11T16:58:59.647Z,95245.63
2023-04-11T17:01:28.061Z,95256.06
2023-04-11T17:03:56.781Z,95266.28
2023-04-11T17:06:26.490Z,95268.44
2023-04-11T17:08:54.777Z,95243.69
2023-04-11T17:11:23.383Z,95263.28
2023-04-11T17:13:55.214Z,95275.97
2023-04-11T17:16:24.274Z,95267.63
2023-04-11T17:18:52.692Z,95306.31
2023-04-11T17:21:21.073Z,95298.47
2023-04-11T17:23:50.402Z,95273.28
2023-04-11T17:26:20.262Z,95267.34
2023-04-11T17:28:48.832Z,95271.13
2023-04-11T17:31:19.762Z,95268.44
2023-04-11T17:33:48.130Z,95262.53
2023-04-11T17:36:16.978Z,95271.66
2023-04-11T17:38:45.871Z,95270.03
2023-04-11T17:41:15.609Z,95267.34
2023-04-11T17:43:44.643Z,95280.22
2023-04-11T17:46:13.976Z,95268.44
2023-04-11T17:48:43.924Z,95269.78
2023-04-11T17:51:12.353Z,95188.16
2023-04-11T17:53:41.235Z,95271.63
2023-04-11T17:56:12.199Z,95217.34
2023-04-11T17:58:44.423Z,95279.38
2023-04-11T18:01:12.897Z,95256.81
2023-04-11T18:03:41.695Z,95274.53
2023-04-11T18:06:12.157Z,95277.19
2023-04-11T18:11:12.882Z,95276.34
2023-04-11T18:13:41.463Z,95270.16
2023-04-11T18:16:11.459Z,95274.97
2023-04-11T18:18:40.093Z,95278.13
2023-04-11T18:21:08.681Z,95253.69
2023-04-11T18:23:39.583Z,95257.69
2023-04-11T18:26:07.923Z,95277.81
2023-04-11T18:28:36.593Z,95280.19
2023-04-11T18:31:05.268Z,95278.31
2023-04-11T18:33:34.163Z,95282.28
2023-04-11T18:36:03.719Z,95287.63
2023-04-11T18:38:32.397Z,95290.53
2023-04-11T18:41:06.674Z,95264.69
2023-04-11T18:43:38.300Z,95290.41
2023-04-11T18:46:08.261Z,95300.03
2023-04-11T18:48:36.954Z,95253.25
2023-04-11T18:51:06.028Z,95284.66
2023-04-11T18:53:36.738Z,95309.56
2023-04-11T18:56:07.387Z,95303.63
2023-04-11T18:58:40.133Z,95310.81
2023-04-11T19:01:15.613Z,95304.84
2023-04-11T19:03:46.800Z,95302.13
2023-04-11T19:06:15.727Z,95299.69
2023-04-11T19:08:44.074Z,95299.53
2023-04-11T19:11:13.793Z,95310.31
2023-04-11T19:13:42.143Z,95308.94
2023-04-11T19:16:10.945Z,95310.22
2023-04-11T19:18:39.284Z,95312.38
2023-04-11T19:21:08.091Z,95305.41
2023-04-11T19:23:36.476Z,95308.22
2023-04-11T19:26:05.032Z,95311.66
2023-04-11T19:28:34.811Z,95287.75
2023-04-11T19:31:03.152Z,95301.47
2023-04-11T19:33:31.627Z,95299.84
2023-04-11T19:36:00.030Z,95297.13
2023-04-11T19:38:28.550Z,95298.16
2023-04-11T19:40:57.003Z,95212.00
2023-04-11T19:43:25.428Z,95298.34
2023-04-11T19:45:55.572Z,95300.78
2023-04-11T19:48:23.964Z,95305.06
2023-04-11T19:50:53.549Z,95296.25
2023-04-11T19:53:21.899Z,95297.84
2023-04-11T19:55:52.641Z,95291.72
2023-04-11T19:58:21.541Z,95283.41
2023-04-11T20:00:49.927Z,95282.09
2023-04-11T20:03:20.772Z,95278.88
2023-04-11T20:05:49.882Z,95282.06
2023-04-11T20:08:19.090Z,95276.16
2023-04-11T20:10:47.486Z,95274.03
2023-04-11T20:13:16.905Z,95276.75
2023-04-11T20:15:45.256Z,95271.44
2023-04-11T20:18:13.728Z,95274.19
2023-04-11T20:20:43.633Z,95272.88
2023-04-11T20:23:15.676Z,95272.06
2023-04-11T20:25:44.151Z,95267.72
2023-04-11T20:28:12.487Z,95265.56
2023-04-11T20:30:41.282Z,95255.13
2023-04-11T20:33:09.658Z,95257.00
2023-04-11T20:35:38.056Z,95260.75
2023-04-11T20:38:08.027Z,95240.34
2023-04-11T20:40:37.199Z,95117.94
2023-04-11T20:43:06.726Z,95252.69
2023-04-11T20:45:36.343Z,95255.88
2023-04-11T20:48:06.509Z,95239.19
2023-04-11T20:50:34.924Z,95248.94
2023-04-11T20:53:03.412Z,95187.13
2023-04-11T20:55:34.068Z,95247.91
2023-04-11T20:58:02.644Z,95201.41
2023-04-11T21:00:30.970Z,95251.97
2023-04-11T21:02:59.324Z,95249.00
2023-04-11T21:05:29.034Z,95238.25
2023-04-11T21:07:58.423Z,95250.03
2023-04-11T21:10:26.727Z,95256.06
2023-04-11T21:12:56.816Z,95163.22
2023-04-11T21:15:25.583Z,95247.56
2023-04-11T21:17:54.066Z,95220.59
2023-04-11T21:20:22.773Z,95209.47
2023-04-11T21:22:53.082Z,95233.88
2023-04-11T21:25:21.496Z,95238.41
2023-04-11T21:27:49.989Z,95215.91
2023-04-11T21:30:19.998Z,95230.34
2023-04-11T21:32:48.633Z,95188.59
2023-04-11T21:35:17.040Z,95236.31
2023-04-11T21:37:47.685Z,95220.16
2023-04-11T21:40:17.349Z,95239.22
2023-04-11T21:42:45.772Z,95244.38
2023-04-11T21:45:14.326Z,95243.38
2023-04-11T21:47:44.075Z,95236.22
2023-04-11T21:50:13.237Z,95236.50
2023-04-11T21:52:41.656Z,95201.63
2023-04-11T21:55:11.974Z,95226.44
2023-04-11T21:57:40.694Z,95222.22
2023-04-11T22:00:11.227Z,95217.97
2023-04-11T22:02:39.962Z,95224.66
2023-04-11T22:05:11.092Z,95215.34
2023-04-11T22:07:48.528Z,95210.78
2023-04-11T22:10:24.013Z,95207.88
2023-04-11T22:12:54.565Z,95190.44
2023-04-11T22:15:24.526Z,95198.56
2023-04-11T22:17:56.597Z,95208.69
2023-04-11T22:20:26.609Z,95202.53
2023-04-11T22:22:57.011Z,95195.34
2023-04-11T22:25:25.806Z,95172.00
2023-04-11T22:27:55.059Z,95192.69
2023-04-11T22:30:25.029Z,95170.16
2023-04-11T22:32:54.474Z,95185.50
2023-04-11T22:35:23.433Z,95183.88
2023-04-11T22:37:55.508Z,95181.50
2023-04-11T22:40:24.222Z,95181.50
2023-04-11T22:42:53.231Z,95184.69
2023-04-11T22:45:22.133Z,95185.19
2023-04-11T22:47:54.361Z,95184.38
2023-04-11T22:50:23.203Z,95149.66
2023-04-11T22:52:54.889Z,95125.53
2023-04-11T22:55:24.919Z,95094.38
2023-04-11T22:57:53.348Z,95162.13
2023-04-11T23:00:22.101Z,95153.59
2023-04-11T23:02:51.289Z,95157.84
2023-04-11T23:05:20.851Z,95159.75
2023-04-11T23:07:49.326Z,95152.28
2023-04-11T23:10:19.762Z,95137.75
2023-04-11T23:12:49.556Z,95146.13
2023-04-11T23:15:19.377Z,95135.44
2023-04-11T23:17:47.753Z,95135.19
2023-04-11T23:20:17.677Z,95076.97
2023-04-11T23:22:46.482Z,95131.44
2023-04-11T23:25:15.541Z,95092.00
2023-04-11T23:27:46.062Z,95120.50
2023-04-11T23:30:17.525Z,95121.31
2023-04-11T23:32:46.111Z,95114.88
2023-04-11T23:35:17.048Z,95072.19
2023-04-11T23:37:45.797Z,95107.97
2023-04-11T23:40:14.584Z,95103.41
2023-04-11T23:42:44.788Z,95060.69
2023-04-11T23:45:15.079Z,95097.00
2023-04-11T23:47:43.844Z,95092.19
2023-04-11T23:50:12.872Z,95070.50
2023-04-11T23:52:41.291Z,95082.31
2023-04-11T23:55:10.261Z,95085.53
2023-04-11T23:57:38.714Z,95091.16
